createdAt,value
2022-09-06T00:01:58.509Z,100.00
2022-09-06T00:12:00.283Z,100.00
2022-09-06T00:22:02.178Z,100.00
2022-09-06T00:32:04.153Z,100.00
2022-09-06T00:42:10.906Z,100.00
2022-09-06T00:52:15.451Z,100.00
2022-09-06T01:02:17.183Z,100.00
2022-09-06T01:12:54.007Z,100.00
2022-09-06T01:23:01.611Z,100.00
2022-09-06T01:33:31.636Z,100.00
2022-09-06T01:43:38.089Z,100.00
2022-09-06T01:54:04.130Z,100.00
2022-09-06T02:04:48.495Z,100.00
2022-09-06T02:15:07.252Z,100.00
2022-09-06T02:25:27.634Z,100.00
2022-09-06T02:35:30.943Z,100.00
2022-09-06T02:45:32.803Z,100.00
2022-09-06T02:55:34.833Z,100.00
2022-09-06T03:05:36.890Z,100.00
2022-09-06T03:15:39.634Z,100.00
2022-09-06T03:25:43.287Z,100.00
2022-09-06T03:35:54.473Z,100.00
2022-09-06T03:45:57.924Z,100.00
2022-09-06T03:56:00.129Z,100.00
2022-09-06T04:06:02.329Z,100.00
2022-09-06T04:16:07.911Z,100.00
2022-09-06T04:26:11.001Z,100.00
2022-09-06T04:36:13.020Z,100.00
2022-09-06T04:46:19.369Z,100.00
2022-09-06T04:56:24.164Z,100.00
2022-09-06T05:06:27.355Z,100.00
2022-09-06T05:16:29.225Z,100.00
2022-09-06T05:26:31.028Z,100.00
2022-09-06T05:36:33.337Z,100.00
2022-09-06T05:46:35.003Z,100.00
2022-09-06T05:56:36.646Z,87.23
2022-09-06T06:06:38.241Z,83.98
2022-09-06T06:16:40.025Z,79.34
2022-09-06T06:26:41.812Z,73.32
2022-09-06T06:36:44.439Z,70.22
2022-09-06T06:46:46.307Z,59.33
2022-09-06T06:56:47.963Z,59.33
2022-09-06T07:17:12.629Z,54.39
2022-09-06T07:37:36.035Z,52.40
2022-09-06T07:58:01.438Z,49.52
2022-09-06T08:18:30.977Z,46.08
2022-09-06T08:28:32.674Z,44.03
2022-09-06T08:38:34.816Z,42.71
2022-09-06T08:48:40.001Z,40.47
2022-09-06T08:58:50.956Z,41.00
2022-09-06T09:09:08.512Z,37.86
2022-09-06T09:19:11.251Z,36.69
2022-09-06T09:29:14.771Z,37.28
2022-09-06T09:39:17.204Z,38.06
2022-09-06T09:49:25.301Z,36.64
2022-09-06T09:59:34.180Z,36.70
2022-09-06T10:09:42.767Z,32.77
2022-09-06T10:19:46.434Z,32.57
2022-09-06T10:30:06.724Z,33.33
2022-09-06T10:40:17.354Z,31.76
2022-09-06T10:50:19.520Z,29.85
2022-09-06T11:00:22.025Z,28.66
2022-09-06T11:10:30.132Z,27.27
2022-09-06T11:20:57.283Z,26.64
2022-09-06T11:30:59.843Z,28.94
2022-09-06T11:41:05.584Z,29.04
2022-09-06T11:51:11.266Z,24.65
2022-09-06T12:01:13.234Z,19.84
2022-09-06T12:11:46.494Z,18.39
2022-09-06T12:21:54.465Z,22.96
2022-09-06T12:32:06.322Z,25.96
2022-09-06T12:42:13.457Z,17.80
2022-09-06T12:52:19.628Z,19.39
2022-09-06T13:02:35.190Z,17.51
2022-09-06T13:12:45.555Z,15.27
2022-09-06T13:22:50.903Z,17.86
2022-09-06T13:32:52.649Z,20.90
2022-09-06T13:43:01.144Z,30.05
2022-09-06T13:53:03.744Z,33.22
2022-09-06T14:03:05.541Z,35.13
2022-09-06T14:13:07.404Z,36.54
2022-09-06T14:23:10.758Z,38.23
2022-09-06T14:33:12.526Z,39.12
2022-09-06T14:43:15.229Z,40.00
2022-09-06T14:53:38.982Z,41.73
2022-09-06T15:03:43.050Z,40.84
2022-09-06T15:13:44.817Z,41.05
2022-09-06T15:23:46.746Z,41.80
2022-09-06T15:33:51.353Z,45.91
2022-09-06T15:43:56.890Z,57.88
2022-09-06T15:53:59.786Z,64.56
2022-09-06T16:04:06.748Z,68.27
2022-09-06T16:14:12.703Z,70.49
2022-09-06T16:24:14.737Z,70.54
2022-09-06T16:34:21.605Z,68.23
2022-09-06T16:44:23.255Z,73.05
2022-09-06T16:54:25.015Z,81.42
2022-09-06T17:04:27.708Z,83.64
2022-09-06T17:14:34.143Z,84.94
2022-09-06T17:24:37.950Z,86.88
2022-09-06T17:34:41.328Z,87.49
2022-09-06T17:45:09.417Z,89.31
2022-09-06T17:55:17.312Z,92.17
2022-09-06T18:15:54.509Z,96.06
2022-09-06T18:25:58.614Z,97.56
2022-09-06T18:36:07.047Z,100.00
2022-09-06T18:46:13.181Z,100.00
2022-09-06T18:56:22.530Z,100.00
2022-09-06T19:06:25.132Z,100.00
2022-09-06T19:16:29.329Z,100.00
2022-09-06T19:26:40.181Z,100.00
2022-09-06T19:36:43.891Z,100.00
2022-09-06T19:46:51.792Z,100.00
2022-09-06T19:57:00.953Z,100.00
2022-09-06T20:07:04.336Z,100.00
2022-09-06T20:17:32.328Z,100.00
2022-09-06T20:27:31.503Z,100.00
2022-09-06T20:37:33.504Z,100.00
2022-09-06T20:47:35.491Z,100.00
2022-09-06T20:57:38.503Z,100.00
2022-09-06T21:07:46.633Z,100.00
2022-09-06T21:17:49.638Z,100.00
2022-09-06T21:27:55.801Z,100.00
2022-09-06T21:37:57.850Z,100.00
2022-09-06T21:48:07.908Z,100.00
2022-09-06T21:58:11.248Z,100.00
2022-09-06T22:08:17.362Z,100.00
2022-09-06T22:18:19.570Z,100.00
2022-09-06T22:28:21.472Z,100.00
2022-09-06T22:38:23.288Z,100.00
2022-09-06T22:48:25.028Z,100.00
2022-09-06T22:58:29.709Z,100.00
2022-09-06T23:08:36.009Z,100.00
2022-09-06T23:18:39.067Z,100.00
2022-09-06T23:28:42.108Z,100.00
2022-09-06T23:38:48.134Z,100.00
2022-09-06T23:48:49.871Z,100.00
2022-09-06T23:58:51.546Z,100.00
